sensor_id;sensor_type;location;lat;lon;timestamp;temperature;humidity
37782;DHT22;23621;50.878;4.584;2023-02-11T00:00:40;13.10;69.10
37782;DHT22;23621;50.878;4.584;2023-02-11T00:03:08;13.10;69.10
37782;DHT22;23621;50.878;4.584;2023-02-11T00:05:35;13.10;69.00
37782;DHT22;23621;50.878;4.584;2023-02-11T00:08:02;13.10;69.00
37782;DHT22;23621;50.878;4.584;2023-02-11T00:10:29;13.10;69.00
37782;DHT22;23621;50.878;4.584;2023-02-11T00:12:56;13.00;69.10
37782;DHT22;23621;50.878;4.584;2023-02-11T00:15:23;13.00;69.10
37782;DHT22;23621;50.878;4.584;2023-02-11T00:17:50;12.90;69.10
37782;DHT22;23621;50.878;4.584;2023-02-11T00:20:17;12.90;69.20
37782;DHT22;23621;50.878;4.584;2023-02-11T00:22:44;12.90;69.10
37782;DHT22;23621;50.878;4.584;2023-02-11T00:25:11;12.90;69.10
37782;DHT22;23621;50.878;4.584;2023-02-11T00:27:38;12.90;69.10
37782;DHT22;23621;50.878;4.584;2023-02-11T00:30:05;12.90;69.10
37782;DHT22;23621;50.878;4.584;2023-02-11T00:32:32;12.90;69.10
37782;DHT22;23621;50.878;4.584;2023-02-11T00:35:00;12.90;69.10
37782;DHT22;23621;50.878;4.584;2023-02-11T00:37:36;12.90;69.00
37782;DHT22;23621;50.878;4.584;2023-02-11T00:40:04;12.90;69.00
37782;DHT22;23621;50.878;4.584;2023-02-11T00:42:33;12.90;69.00
37782;DHT22;23621;50.878;4.584;2023-02-11T00:45:01;12.90;69.20
37782;DHT22;23621;50.878;4.584;2023-02-11T00:47:28;12.80;69.30
37782;DHT22;23621;50.878;4.584;2023-02-11T00:49:55;12.80;69.30
37782;DHT22;23621;50.878;4.584;2023-02-11T00:52:22;12.80;69.30
37782;DHT22;23621;50.878;4.584;2023-02-11T00:54:49;12.80;69.20
37782;DHT22;23621;50.878;4.584;2023-02-11T00:57:16;12.80;69.40
37782;DHT22;23621;50.878;4.584;2023-02-11T00:59:42;12.70;69.40
37782;DHT22;23621;50.878;4.584;2023-02-11T01:02:09;12.70;69.50
37782;DHT22;23621;50.878;4.584;2023-02-11T01:04:36;12.80;69.40
37782;DHT22;23621;50.878;4.584;2023-02-11T01:07:03;12.80;69.30
37782;DHT22;23621;50.878;4.584;2023-02-11T01:09:30;12.80;69.30
37782;DHT22;23621;50.878;4.584;2023-02-11T01:11:57;12.80;69.30
37782;DHT22;23621;50.878;4.584;2023-02-11T01:14:25;12.80;69.30
37782;DHT22;23621;50.878;4.584;2023-02-11T01:16:53;12.80;69.40
37782;DHT22;23621;50.878;4.584;2023-02-11T01:19:20;12.90;69.50
37782;DHT22;23621;50.878;4.584;2023-02-11T01:21:47;12.90;69.30
37782;DHT22;23621;50.878;4.584;2023-02-11T01:24:13;13.00;69.40
37782;DHT22;23621;50.878;4.584;2023-02-11T01:26:40;13.00;69.40
37782;DHT22;23621;50.878;4.584;2023-02-11T01:29:07;13.00;69.30
37782;DHT22;23621;50.878;4.584;2023-02-11T01:31:35;13.00;69.30
37782;DHT22;23621;50.878;4.584;2023-02-11T01:34:02;13.00;69.40
37782;DHT22;23621;50.878;4.584;2023-02-11T01:36:29;13.10;69.50
37782;DHT22;23621;50.878;4.584;2023-02-11T01:38:56;13.10;69.30
37782;DHT22;23621;50.878;4.584;2023-02-11T01:41:23;13.10;69.30
37782;DHT22;23621;50.878;4.584;2023-02-11T01:43:50;13.10;69.40
37782;DHT22;23621;50.878;4.584;2023-02-11T01:49:15;13.00;69.30
37782;DHT22;23621;50.878;4.584;2023-02-11T01:54:20;13.00;69.40
37782;DHT22;23621;50.878;4.584;2023-02-11T01:57:06;13.00;69.50
37782;DHT22;23621;50.878;4.584;2023-02-11T01:59:59;13.00;69.50
37782;DHT22;23621;50.878;4.584;2023-02-11T02:08:26;12.90;69.70
37782;DHT22;23621;50.878;4.584;2023-02-11T02:10:55;13.00;69.70
37782;DHT22;23621;50.878;4.584;2023-02-11T02:13:25;13.00;69.70
37782;DHT22;23621;50.878;4.584;2023-02-11T02:15:55;13.00;69.80
37782;DHT22;23621;50.878;4.584;2023-02-11T02:27:22;13.10;69.90
37782;DHT22;23621;50.878;4.584;2023-02-11T02:38:37;13.00;70.20
37782;DHT22;23621;50.878;4.584;2023-02-11T02:41:15;13.00;70.30
37782;DHT22;23621;50.878;4.584;2023-02-11T02:43:47;13.00;70.20
37782;DHT22;23621;50.878;4.584;2023-02-11T02:48:47;13.20;70.30
37782;DHT22;23621;50.878;4.584;2023-02-11T03:07:56;13.30;70.10
37782;DHT22;23621;50.878;4.584;2023-02-11T03:10:28;13.40;70.80
37782;DHT22;23621;50.878;4.584;2023-02-11T03:12:56;13.40;70.10
37782;DHT22;23621;50.878;4.584;2023-02-11T03:15:26;13.40;70.10
37782;DHT22;23621;50.878;4.584;2023-02-11T03:17:57;13.40;70.10
37782;DHT22;23621;50.878;4.584;2023-02-11T03:20:27;13.40;70.10
37782;DHT22;23621;50.878;4.584;2023-02-11T03:23:01;13.50;70.10
37782;DHT22;23621;50.878;4.584;2023-02-11T03:25:33;13.40;70.10
37782;DHT22;23621;50.878;4.584;2023-02-11T03:28:13;13.40;70.20
37782;DHT22;23621;50.878;4.584;2023-02-11T03:30:48;13.40;70.20
37782;DHT22;23621;50.878;4.584;2023-02-11T03:33:23;13.40;70.30
37782;DHT22;23621;50.878;4.584;2023-02-11T03:36:01;13.40;70.30
37782;DHT22;23621;50.878;4.584;2023-02-11T03:38:34;13.40;70.40
37782;DHT22;23621;50.878;4.584;2023-02-11T03:41:05;13.40;70.40
37782;DHT22;23621;50.878;4.584;2023-02-11T03:43:37;13.40;70.40
37782;DHT22;23621;50.878;4.584;2023-02-11T03:46:07;13.40;70.40
37782;DHT22;23621;50.878;4.584;2023-02-11T03:48:42;13.40;70.50
37782;DHT22;23621;50.878;4.584;2023-02-11T03:51:11;13.50;70.50
37782;DHT22;23621;50.878;4.584;2023-02-11T03:53:42;13.40;70.60
37782;DHT22;23621;50.878;4.584;2023-02-11T03:56:14;13.50;70.60
37782;DHT22;23621;50.878;4.584;2023-02-11T03:58:45;13.50;70.60
37782;DHT22;23621;50.878;4.584;2023-02-11T04:01:13;13.40;70.60
37782;DHT22;23621;50.878;4.584;2023-02-11T04:03:40;13.30;70.90
37782;DHT22;23621;50.878;4.584;2023-02-11T04:06:07;13.40;70.90
37782;DHT22;23621;50.878;4.584;2023-02-11T04:08:34;13.40;70.90
37782;DHT22;23621;50.878;4.584;2023-02-11T04:11:01;13.30;71.00
37782;DHT22;23621;50.878;4.584;2023-02-11T04:13:29;13.30;71.10
37782;DHT22;23621;50.878;4.584;2023-02-11T04:15:56;13.30;71.10
37782;DHT22;23621;50.878;4.584;2023-02-11T04:18:23;13.30;71.10
37782;DHT22;23621;50.878;4.584;2023-02-11T04:20:50;13.30;71.20
37782;DHT22;23621;50.878;4.584;2023-02-11T04:23:17;13.30;71.30
37782;DHT22;23621;50.878;4.584;2023-02-11T04:25:44;13.30;71.20
37782;DHT22;23621;50.878;4.584;2023-02-11T04:28:10;13.40;71.20
37782;DHT22;23621;50.878;4.584;2023-02-11T04:30:37;13.40;71.20
37782;DHT22;23621;50.878;4.584;2023-02-11T04:33:04;13.40;71.20
37782;DHT22;23621;50.878;4.584;2023-02-11T04:35:31;13.40;71.20
37782;DHT22;23621;50.878;4.584;2023-02-11T04:37:58;13.40;71.30
37782;DHT22;23621;50.878;4.584;2023-02-11T04:40:25;13.50;71.20
37782;DHT22;23621;50.878;4.584;2023-02-11T04:42:52;13.50;71.20
37782;DHT22;23621;50.878;4.584;2023-02-11T04:45:19;13.50;71.10
37782;DHT22;23621;50.878;4.584;2023-02-11T04:47:46;13.50;71.20
37782;DHT22;23621;50.878;4.584;2023-02-11T04:50:14;13.40;71.10
37782;DHT22;23621;50.878;4.584;2023-02-11T04:52:40;13.40;71.20
37782;DHT22;23621;50.878;4.584;2023-02-11T04:55:07;13.50;71.30
37782;DHT22;23621;50.878;4.584;2023-02-11T04:57:34;13.40;71.20
37782;DHT22;23621;50.878;4.584;2023-02-11T05:00:02;13.40;71.30
37782;DHT22;23621;50.878;4.584;2023-02-11T05:02:29;13.40;71.30
37782;DHT22;23621;50.878;4.584;2023-02-11T05:04:56;13.40;71.30
37782;DHT22;23621;50.878;4.584;2023-02-11T05:07:23;13.40;71.50
37782;DHT22;23621;50.878;4.584;2023-02-11T05:09:50;13.40;71.50
37782;DHT22;23621;50.878;4.584;2023-02-11T05:12:17;13.50;71.40
37782;DHT22;23621;50.878;4.584;2023-02-11T05:14:44;13.50;71.30
37782;DHT22;23621;50.878;4.584;2023-02-11T05:17:11;13.50;71.30
37782;DHT22;23621;50.878;4.584;2023-02-11T05:19:38;13.60;71.30
37782;DHT22;23621;50.878;4.584;2023-02-11T05:22:04;13.60;71.20
37782;DHT22;23621;50.878;4.584;2023-02-11T05:24:31;13.60;71.10
37782;DHT22;23621;50.878;4.584;2023-02-11T05:26:59;13.70;71.30
37782;DHT22;23621;50.878;4.584;2023-02-11T05:29:26;13.60;71.10
37782;DHT22;23621;50.878;4.584;2023-02-11T05:31:53;13.60;71.20
37782;DHT22;23621;50.878;4.584;2023-02-11T05:34:20;13.60;71.20
37782;DHT22;23621;50.878;4.584;2023-02-11T05:36:47;13.60;71.40
37782;DHT22;23621;50.878;4.584;2023-02-11T05:39:14;13.60;71.40
37782;DHT22;23621;50.878;4.584;2023-02-11T05:41:41;13.60;71.30
37782;DHT22;23621;50.878;4.584;2023-02-11T05:44:08;13.70;71.40
37782;DHT22;23621;50.878;4.584;2023-02-11T05:46:35;13.70;71.40
37782;DHT22;23621;50.878;4.584;2023-02-11T05:49:02;13.70;71.30
37782;DHT22;23621;50.878;4.584;2023-02-11T05:51:29;13.60;71.30
37782;DHT22;23621;50.878;4.584;2023-02-11T05:53:56;13.70;71.40
37782;DHT22;23621;50.878;4.584;2023-02-11T05:56:23;13.70;71.50
37782;DHT22;23621;50.878;4.584;2023-02-11T05:58:50;13.60;71.60
37782;DHT22;23621;50.878;4.584;2023-02-11T06:01:17;13.60;71.60
37782;DHT22;23621;50.878;4.584;2023-02-11T06:03:43;13.60;71.60
37782;DHT22;23621;50.878;4.584;2023-02-11T06:06:11;13.60;71.70
37782;DHT22;23621;50.878;4.584;2023-02-11T06:08:38;13.50;71.70
37782;DHT22;23621;50.878;4.584;2023-02-11T06:11:06;13.50;71.80
37782;DHT22;23621;50.878;4.584;2023-02-11T06:13:33;13.50;71.90
37782;DHT22;23621;50.878;4.584;2023-02-11T06:16:01;13.60;71.90
37782;DHT22;23621;50.878;4.584;2023-02-11T06:18:29;13.60;71.90
37782;DHT22;23621;50.878;4.584;2023-02-11T06:20:56;13.60;71.80
37782;DHT22;23621;50.878;4.584;2023-02-11T06:23:23;13.70;71.80
37782;DHT22;23621;50.878;4.584;2023-02-11T06:25:51;13.70;71.70
37782;DHT22;23621;50.878;4.584;2023-02-11T06:28:18;13.60;71.70
37782;DHT22;23621;50.878;4.584;2023-02-11T06:30:45;13.70;71.70
37782;DHT22;23621;50.878;4.584;2023-02-11T06:33:12;13.70;71.80
37782;DHT22;23621;50.878;4.584;2023-02-11T06:35:39;13.70;71.80
37782;DHT22;23621;50.878;4.584;2023-02-11T06:38:06;13.70;71.80
37782;DHT22;23621;50.878;4.584;2023-02-11T06:40:33;13.70;71.70
37782;DHT22;23621;50.878;4.584;2023-02-11T06:43:00;13.70;71.70
37782;DHT22;23621;50.878;4.584;2023-02-11T06:45:27;13.70;71.70
37782;DHT22;23621;50.878;4.584;2023-02-11T06:47:54;13.80;71.80
37782;DHT22;23621;50.878;4.584;2023-02-11T06:50:21;13.80;72.60
37782;DHT22;23621;50.878;4.584;2023-02-11T06:52:48;13.80;71.80
37782;DHT22;23621;50.878;4.584;2023-02-11T06:55:15;13.80;71.80
37782;DHT22;23621;50.878;4.584;2023-02-11T06:57:42;13.80;71.70
37782;DHT22;23621;50.878;4.584;2023-02-11T07:00:09;13.90;71.70
37782;DHT22;23621;50.878;4.584;2023-02-11T07:02:36;13.90;71.70
37782;DHT22;23621;50.878;4.584;2023-02-11T07:05:05;13.90;71.50
37782;DHT22;23621;50.878;4.584;2023-02-11T07:07:33;14.00;71.60
37782;DHT22;23621;50.878;4.584;2023-02-11T07:10:00;14.00;71.60
37782;DHT22;23621;50.878;4.584;2023-02-11T07:12:30;13.90;71.50
37782;DHT22;23621;50.878;4.584;2023-02-11T07:14:57;13.90;71.50
37782;DHT22;23621;50.878;4.584;2023-02-11T07:17:24;13.90;71.60
37782;DHT22;23621;50.878;4.584;2023-02-11T07:19:51;13.90;71.70
37782;DHT22;23621;50.878;4.584;2023-02-11T07:22:18;13.90;71.90
37782;DHT22;23621;50.878;4.584;2023-02-11T07:24:45;13.90;71.90
37782;DHT22;23621;50.878;4.584;2023-02-11T07:27:12;13.90;71.90
37782;DHT22;23621;50.878;4.584;2023-02-11T07:29:40;13.80;72.00
37782;DHT22;23621;50.878;4.584;2023-02-11T07:32:07;13.80;72.10
37782;DHT22;23621;50.878;4.584;2023-02-11T07:34:35;13.80;72.10
37782;DHT22;23621;50.878;4.584;2023-02-11T07:37:02;13.80;72.10
37782;DHT22;23621;50.878;4.584;2023-02-11T07:39:29;13.80;72.20
37782;DHT22;23621;50.878;4.584;2023-02-11T07:41:56;13.90;72.30
37782;DHT22;23621;50.878;4.584;2023-02-11T07:44:23;13.90;72.20
37782;DHT22;23621;50.878;4.584;2023-02-11T07:46:50;13.90;72.20
37782;DHT22;23621;50.878;4.584;2023-02-11T07:49:17;13.90;72.10
37782;DHT22;23621;50.878;4.584;2023-02-11T07:51:44;14.00;72.10
37782;DHT22;23621;50.878;4.584;2023-02-11T07:54:11;14.00;72.10
37782;DHT22;23621;50.878;4.584;2023-02-11T07:56:38;14.00;72.30
37782;DHT22;23621;50.878;4.584;2023-02-11T07:59:05;13.90;72.20
37782;DHT22;23621;50.878;4.584;2023-02-11T08:01:32;13.90;72.30
37782;DHT22;23621;50.878;4.584;2023-02-11T08:04:00;13.90;72.30
37782;DHT22;23621;50.878;4.584;2023-02-11T08:06:31;13.90;72.50
37782;DHT22;23621;50.878;4.584;2023-02-11T08:09:04;13.90;72.40
37782;DHT22;23621;50.878;4.584;2023-02-11T08:11:31;14.00;72.40
37782;DHT22;23621;50.878;4.584;2023-02-11T08:13:58;14.00;72.50
37782;DHT22;23621;50.878;4.584;2023-02-11T08:16:33;14.00;72.50
37782;DHT22;23621;50.878;4.584;2023-02-11T08:19:09;14.00;72.60
37782;DHT22;23621;50.878;4.584;2023-02-11T08:21:37;13.90;72.60
37782;DHT22;23621;50.878;4.584;2023-02-11T08:24:05;13.90;72.60
37782;DHT22;23621;50.878;4.584;2023-02-11T08:26:33;14.00;72.60
37782;DHT22;23621;50.878;4.584;2023-02-11T08:29:06;14.00;72.80
37782;DHT22;23621;50.878;4.584;2023-02-11T08:31:36;14.00;72.80
37782;DHT22;23621;50.878;4.584;2023-02-11T08:34:03;14.00;72.80
37782;DHT22;23621;50.878;4.584;2023-02-11T08:36:33;14.10;72.70
37782;DHT22;23621;50.878;4.584;2023-02-11T08:39:04;14.10;72.70
37782;DHT22;23621;50.878;4.584;2023-02-11T08:41:46;14.10;72.70
37782;DHT22;23621;50.878;4.584;2023-02-11T08:44:15;14.10;72.70
37782;DHT22;23621;50.878;4.584;2023-02-11T08:46:42;14.20;72.60
37782;DHT22;23621;50.878;4.584;2023-02-11T08:49:09;14.20;72.50
37782;DHT22;23621;50.878;4.584;2023-02-11T08:51:36;14.20;72.50
37782;DHT22;23621;50.878;4.584;2023-02-11T08:54:03;14.20;72.50
37782;DHT22;23621;50.878;4.584;2023-02-11T08:56:31;14.20;72.60
37782;DHT22;23621;50.878;4.584;2023-02-11T08:58:59;14.20;72.60
37782;DHT22;23621;50.878;4.584;2023-02-11T09:01:29;14.20;72.70
37782;DHT22;23621;50.878;4.584;2023-02-11T09:03:57;14.20;72.80
37782;DHT22;23621;50.878;4.584;2023-02-11T09:06:25;14.20;72.90
37782;DHT22;23621;50.878;4.584;2023-02-11T09:08:54;14.20;72.90
37782;DHT22;23621;50.878;4.584;2023-02-11T09:11:26;14.20;72.90
37782;DHT22;23621;50.878;4.584;2023-02-11T09:13:53;14.20;72.70
37782;DHT22;23621;50.878;4.584;2023-02-11T09:16:23;14.30;72.80
37782;DHT22;23621;50.878;4.584;2023-02-11T09:18:51;14.30;72.80
37782;DHT22;23621;50.878;4.584;2023-02-11T09:21:19;14.20;72.80
37782;DHT22;23621;50.878;4.584;2023-02-11T09:23:46;14.20;72.90
37782;DHT22;23621;50.878;4.584;2023-02-11T09:26:15;14.20;72.90
37782;DHT22;23621;50.878;4.584;2023-02-11T09:28:43;14.20;72.90
37782;DHT22;23621;50.878;4.584;2023-02-11T09:31:12;14.20;73.00
37782;DHT22;23621;50.878;4.584;2023-02-11T09:33:44;14.30;73.10
37782;DHT22;23621;50.878;4.584;2023-02-11T09:36:28;14.30;73.00
37782;DHT22;23621;50.878;4.584;2023-02-11T09:38:57;14.30;73.10
37782;DHT22;23621;50.878;4.584;2023-02-11T09:44:18;14.20;73.30
37782;DHT22;23621;50.878;4.584;2023-02-11T09:46:51;14.20;73.30
37782;DHT22;23621;50.878;4.584;2023-02-11T09:49:24;14.20;73.50
37782;DHT22;23621;50.878;4.584;2023-02-11T09:52:01;14.20;73.40
37782;DHT22;23621;50.878;4.584;2023-02-11T09:55:00;14.30;73.50
37782;DHT22;23621;50.878;4.584;2023-02-11T09:57:32;14.30;73.50
37782;DHT22;23621;50.878;4.584;2023-02-11T10:00:06;14.30;73.50
37782;DHT22;23621;50.878;4.584;2023-02-11T10:08:20;14.40;73.60
37782;DHT22;23621;50.878;4.584;2023-02-11T10:10:55;14.50;73.60
37782;DHT22;23621;50.878;4.584;2023-02-11T10:13:48;14.50;73.50
37782;DHT22;23621;50.878;4.584;2023-02-11T10:24:16;14.70;73.70
37782;DHT22;23621;50.878;4.584;2023-02-11T10:26:44;14.60;73.60
37782;DHT22;23621;50.878;4.584;2023-02-11T10:29:36;14.70;73.70
37782;DHT22;23621;50.878;4.584;2023-02-11T10:35:13;14.70;73.80
37782;DHT22;23621;50.878;4.584;2023-02-11T10:37:41;14.70;73.80
37782;DHT22;23621;50.878;4.584;2023-02-11T10:40:19;14.80;73.80
37782;DHT22;23621;50.878;4.584;2023-02-11T10:42:49;14.80;73.80
37782;DHT22;23621;50.878;4.584;2023-02-11T10:45:33;14.80;73.90
37782;DHT22;23621;50.878;4.584;2023-02-11T10:48:06;14.70;74.00
37782;DHT22;23621;50.878;4.584;2023-02-11T10:51:08;14.70;74.10
37782;DHT22;23621;50.878;4.584;2023-02-11T10:53:41;14.70;74.20
37782;DHT22;23621;50.878;4.584;2023-02-11T10:56:11;14.70;74.20
37782;DHT22;23621;50.878;4.584;2023-02-11T10:58:44;14.80;74.20
37782;DHT22;23621;50.878;4.584;2023-02-11T11:01:12;14.70;74.40
37782;DHT22;23621;50.878;4.584;2023-02-11T11:03:51;14.70;74.40
37782;DHT22;23621;50.878;4.584;2023-02-11T11:06:29;14.70;74.30
37782;DHT22;23621;50.878;4.584;2023-02-11T11:08:57;14.70;74.30
37782;DHT22;23621;50.878;4.584;2023-02-11T11:11:25;14.80;74.40
37782;DHT22;23621;50.878;4.584;2023-02-11T11:13:56;14.80;74.30
37782;DHT22;23621;50.878;4.584;2023-02-11T11:16:34;14.70;74.40
37782;DHT22;23621;50.878;4.584;2023-02-11T11:21:45;14.80;74.40
37782;DHT22;23621;50.878;4.584;2023-02-11T11:26:52;15.00;74.30
37782;DHT22;23621;50.878;4.584;2023-02-11T11:29:24;15.00;74.30
37782;DHT22;23621;50.878;4.584;2023-02-11T11:31:58;15.00;74.20
37782;DHT22;23621;50.878;4.584;2023-02-11T11:34:36;15.00;74.10
37782;DHT22;23621;50.878;4.584;2023-02-11T11:37:34;15.00;74.00
37782;DHT22;23621;50.878;4.584;2023-02-11T11:40:09;14.90;74.20
37782;DHT22;23621;50.878;4.584;2023-02-11T11:42:37;14.90;74.30
37782;DHT22;23621;50.878;4.584;2023-02-11T11:45:19;14.90;74.30
37782;DHT22;23621;50.878;4.584;2023-02-11T11:47:55;15.00;74.50
37782;DHT22;23621;50.878;4.584;2023-02-11T11:50:42;15.00;74.20
37782;DHT22;23621;50.878;4.584;2023-02-11T11:58:30;15.00;74.20
37782;DHT22;23621;50.878;4.584;2023-02-11T12:14:52;15.00;74.40
37782;DHT22;23621;50.878;4.584;2023-02-11T12:23:13;15.00;74.50
37782;DHT22;23621;50.878;4.584;2023-02-11T12:50:29;15.10;74.60
37782;DHT22;23621;50.878;4.584;2023-02-11T12:55:43;15.00;74.60
37782;DHT22;23621;50.878;4.584;2023-02-11T12:58:15;15.00;74.70
37782;DHT22;23621;50.878;4.584;2023-02-11T13:01:00;15.10;74.70
37782;DHT22;23621;50.878;4.584;2023-02-11T13:03:40;15.10;74.60
37782;DHT22;23621;50.878;4.584;2023-02-11T13:06:16;15.10;74.60
37782;DHT22;23621;50.878;4.584;2023-02-11T13:08:46;15.20;74.60
37782;DHT22;23621;50.878;4.584;2023-02-11T13:11:21;15.20;74.60
37782;DHT22;23621;50.878;4.584;2023-02-11T13:14:11;15.20;74.60
37782;DHT22;23621;50.878;4.584;2023-02-11T13:16:43;15.30;74.60
37782;DHT22;23621;50.878;4.584;2023-02-11T13:21:49;15.30;74.60
37782;DHT22;23621;50.878;4.584;2023-02-11T13:37:56;15.20;74.90
37782;DHT22;23621;50.878;4.584;2023-02-11T13:40:36;15.20;74.80
37782;DHT22;23621;50.878;4.584;2023-02-11T13:43:05;15.30;74.80
37782;DHT22;23621;50.878;4.584;2023-02-11T13:45:41;15.20;74.80
37782;DHT22;23621;50.878;4.584;2023-02-11T13:48:23;15.30;74.90
37782;DHT22;23621;50.878;4.584;2023-02-11T13:50:54;15.30;74.80
37782;DHT22;23621;50.878;4.584;2023-02-11T13:53:22;15.20;74.80
37782;DHT22;23621;50.878;4.584;2023-02-11T13:55:53;15.30;74.90
37782;DHT22;23621;50.878;4.584;2023-02-11T14:00:56;15.40;74.60
37782;DHT22;23621;50.878;4.584;2023-02-11T14:03:35;15.50;74.60
37782;DHT22;23621;50.878;4.584;2023-02-11T14:06:26;15.50;74.60
37782;DHT22;23621;50.878;4.584;2023-02-11T14:11:46;15.50;74.30
37782;DHT22;23621;50.878;4.584;2023-02-11T14:14:32;15.50;74.40
37782;DHT22;23621;50.878;4.584;2023-02-11T14:19:40;15.50;74.50
37782;DHT22;23621;50.878;4.584;2023-02-11T14:22:12;15.50;74.50
37782;DHT22;23621;50.878;4.584;2023-02-11T14:24:53;15.60;74.40
37782;DHT22;23621;50.878;4.584;2023-02-11T14:38:25;15.70;73.90
37782;DHT22;23621;50.878;4.584;2023-02-11T14:43:56;15.70;73.90
37782;DHT22;23621;50.878;4.584;2023-02-11T14:46:25;15.70;73.90
37782;DHT22;23621;50.878;4.584;2023-02-11T14:48:59;15.70;73.90
37782;DHT22;23621;50.878;4.584;2023-02-11T14:51:35;15.70;74.00
37782;DHT22;23621;50.878;4.584;2023-02-11T14:54:20;15.70;74.00
37782;DHT22;23621;50.878;4.584;2023-02-11T14:57:11;15.70;74.10
37782;DHT22;23621;50.878;4.584;2023-02-11T14:59:53;15.60;74.10
37782;DHT22;23621;50.878;4.584;2023-02-11T15:02:28;15.50;74.20
37782;DHT22;23621;50.878;4.584;2023-02-11T15:05:13;15.60;74.30
37782;DHT22;23621;50.878;4.584;2023-02-11T15:07:44;15.60;74.20
37782;DHT22;23621;50.878;4.584;2023-02-11T15:10:24;15.70;74.20
37782;DHT22;23621;50.878;4.584;2023-02-11T15:12:52;15.60;74.10
37782;DHT22;23621;50.878;4.584;2023-02-11T15:15:20;15.70;74.10
37782;DHT22;23621;50.878;4.584;2023-02-11T15:17:47;15.70;74.00
37782;DHT22;23621;50.878;4.584;2023-02-11T15:20:40;15.70;74.00
37782;DHT22;23621;50.878;4.584;2023-02-11T15:23:14;15.70;74.00
37782;DHT22;23621;50.878;4.584;2023-02-11T15:25:45;15.70;74.00
37782;DHT22;23621;50.878;4.584;2023-02-11T15:28:26;15.80;74.00
37782;DHT22;23621;50.878;4.584;2023-02-11T15:31:02;15.70;74.00
37782;DHT22;23621;50.878;4.584;2023-02-11T15:33:30;15.70;74.00
37782;DHT22;23621;50.878;4.584;2023-02-11T15:35:59;15.80;74.00
37782;DHT22;23621;50.878;4.584;2023-02-11T15:38:26;15.80;74.00
37782;DHT22;23621;50.878;4.584;2023-02-11T15:41:00;15.80;73.90
37782;DHT22;23621;50.878;4.584;2023-02-11T15:43:45;15.80;73.80
37782;DHT22;23621;50.878;4.584;2023-02-11T15:46:18;15.90;73.90
37782;DHT22;23621;50.878;4.584;2023-02-11T15:48:51;15.90;73.90
37782;DHT22;23621;50.878;4.584;2023-02-11T15:51:26;15.90;73.80
37782;DHT22;23621;50.878;4.584;2023-02-11T15:54:01;15.90;73.70
37782;DHT22;23621;50.878;4.584;2023-02-11T15:56:30;15.80;73.70
37782;DHT22;23621;50.878;4.584;2023-02-11T15:59:10;15.80;74.60
37782;DHT22;23621;50.878;4.584;2023-02-11T16:01:41;15.80;73.90
37782;DHT22;23621;50.878;4.584;2023-02-11T16:04:16;15.70;73.90
37782;DHT22;23621;50.878;4.584;2023-02-11T16:06:44;15.80;74.00
37782;DHT22;23621;50.878;4.584;2023-02-11T16:16:57;15.90;73.90
37782;DHT22;23621;50.878;4.584;2023-02-11T16:19:25;15.90;73.70
37782;DHT22;23621;50.878;4.584;2023-02-11T16:21:54;15.90;73.70
37782;DHT22;23621;50.878;4.584;2023-02-11T16:24:27;15.90;73.60
37782;DHT22;23621;50.878;4.584;2023-02-11T16:27:01;15.90;73.60
37782;DHT22;23621;50.878;4.584;2023-02-11T16:29:30;15.90;73.60
37782;DHT22;23621;50.878;4.584;2023-02-11T16:32:28;15.90;73.60
37782;DHT22;23621;50.878;4.584;2023-02-11T16:34:57;15.90;73.50
37782;DHT22;23621;50.878;4.584;2023-02-11T16:37:25;15.90;73.50
37782;DHT22;23621;50.878;4.584;2023-02-11T16:39:53;15.90;73.50
37782;DHT22;23621;50.878;4.584;2023-02-11T16:42:20;15.90;73.60
37782;DHT22;23621;50.878;4.584;2023-02-11T16:44:47;15.90;73.60
37782;DHT22;23621;50.878;4.584;2023-02-11T16:47:22;15.90;73.50
37782;DHT22;23621;50.878;4.584;2023-02-11T16:49:50;15.90;73.60
37782;DHT22;23621;50.878;4.584;2023-02-11T16:52:17;15.80;73.50
37782;DHT22;23621;50.878;4.584;2023-02-11T16:54:45;15.80;73.70
37782;DHT22;23621;50.878;4.584;2023-02-11T16:57:14;15.80;73.60
37782;DHT22;23621;50.878;4.584;2023-02-11T16:59:42;15.80;73.60
37782;DHT22;23621;50.878;4.584;2023-02-11T17:02:25;15.80;73.70
37782;DHT22;23621;50.878;4.584;2023-02-11T17:04:53;15.70;73.70
37782;DHT22;23621;50.878;4.584;2023-02-11T17:07:21;15.70;73.80
37782;DHT22;23621;50.878;4.584;2023-02-11T17:09:48;15.70;73.80
37782;DHT22;23621;50.878;4.584;2023-02-11T17:12:15;15.70;73.80
37782;DHT22;23621;50.878;4.584;2023-02-11T17:14:41;15.70;73.80
37782;DHT22;23621;50.878;4.584;2023-02-11T17:17:09;15.70;73.70
37782;DHT22;23621;50.878;4.584;2023-02-11T17:19:37;15.70;73.70
37782;DHT22;23621;50.878;4.584;2023-02-11T17:22:04;15.70;73.70
37782;DHT22;23621;50.878;4.584;2023-02-11T17:24:31;15.70;73.80
37782;DHT22;23621;50.878;4.584;2023-02-11T17:26:58;15.60;73.80
37782;DHT22;23621;50.878;4.584;2023-02-11T17:29:25;15.60;73.90
37782;DHT22;23621;50.878;4.584;2023-02-11T17:31:52;15.60;73.80
37782;DHT22;23621;50.878;4.584;2023-02-11T17:34:21;15.60;73.90
37782;DHT22;23621;50.878;4.584;2023-02-11T17:36:48;15.60;73.90
37782;DHT22;23621;50.878;4.584;2023-02-11T17:39:15;15.70;73.90
37782;DHT22;23621;50.878;4.584;2023-02-11T17:41:42;15.70;73.90
37782;DHT22;23621;50.878;4.584;2023-02-11T17:44:10;15.70;73.80
37782;DHT22;23621;50.878;4.584;2023-02-11T17:46:42;15.70;73.90
37782;DHT22;23621;50.878;4.584;2023-02-11T17:49:10;15.70;73.80
37782;DHT22;23621;50.878;4.584;2023-02-11T17:51:38;15.70;73.90
37782;DHT22;23621;50.878;4.584;2023-02-11T17:54:11;15.70;74.60
37782;DHT22;23621;50.878;4.584;2023-02-11T17:56:39;15.70;73.80
37782;DHT22;23621;50.878;4.584;2023-02-11T17:59:08;15.70;73.80
37782;DHT22;23621;50.878;4.584;2023-02-11T18:01:36;15.70;73.90
37782;DHT22;23621;50.878;4.584;2023-02-11T18:04:04;15.70;73.90
37782;DHT22;23621;50.878;4.584;2023-02-11T18:06:32;15.70;73.80
37782;DHT22;23621;50.878;4.584;2023-02-11T18:08:59;15.70;73.70
37782;DHT22;23621;50.878;4.584;2023-02-11T18:11:31;15.70;73.80
37782;DHT22;23621;50.878;4.584;2023-02-11T18:14:00;15.70;73.80
37782;DHT22;23621;50.878;4.584;2023-02-11T18:16:28;15.70;73.80
37782;DHT22;23621;50.878;4.584;2023-02-11T18:18:57;15.70;73.80
37782;DHT22;23621;50.878;4.584;2023-02-11T18:21:24;15.70;73.80
37782;DHT22;23621;50.878;4.584;2023-02-11T18:23:51;15.70;73.90
37782;DHT22;23621;50.878;4.584;2023-02-11T18:26:20;15.70;73.90
37782;DHT22;23621;50.878;4.584;2023-02-11T18:28:47;15.70;73.90
37782;DHT22;23621;50.878;4.584;2023-02-11T18:31:14;15.70;73.90
37782;DHT22;23621;50.878;4.584;2023-02-11T18:33:41;15.70;73.80
37782;DHT22;23621;50.878;4.584;2023-02-11T18:36:11;15.70;73.80
37782;DHT22;23621;50.878;4.584;2023-02-11T18:38:39;15.70;73.70
37782;DHT22;23621;50.878;4.584;2023-02-11T18:41:06;15.70;73.70